sensor_id;sensor_type;location;lat;lon;timestamp;pressure;altitude;pressure_sealevel;temperature;humidity
21869;BME280;11099;41.564;23.296;2023-04-28T00:00:24;97848.16;;;10.09;60.60
21869;BME280;11099;41.564;23.296;2023-04-28T00:02:50;97857.03;;;10.04;60.43
21869;BME280;11099;41.564;23.296;2023-04-28T00:05:16;97835.47;;;10.20;59.51
21869;BME280;11099;41.564;23.296;2023-04-28T00:07:42;97805.34;;;9.50;60.48
21869;BME280;11099;41.564;23.296;2023-04-28T00:10:08;97851.28;;;9.84;61.53
21869;BME280;11099;41.564;23.296;2023-04-28T00:12:33;97799.50;;;9.48;60.52
21869;BME280;11099;41.564;23.296;2023-04-28T00:14:59;97857.25;;;10.08;60.12
21869;BME280;11099;41.564;23.296;2023-04-28T00:17:25;97828.63;;;9.72;60.72
21869;BME280;11099;41.564;23.296;2023-04-28T00:19:51;97857.75;;;9.77;61.10
21869;BME280;11099;41.564;23.296;2023-04-28T00:22:17;97825.97;;;9.40;60.75
21869;BME280;11099;41.564;23.296;2023-04-28T00:24:43;97780.78;;;9.07;60.34
21869;BME280;11099;41.564;23.296;2023-04-28T00:27:09;97857.13;;;9.67;60.54
21869;BME280;11099;41.564;23.296;2023-04-28T00:29:35;97847.41;;;9.76;59.79
21869;BME280;11099;41.564;23.296;2023-04-28T00:32:01;97782.69;;;9.20;59.98
21869;BME280;11099;41.564;23.296;2023-04-28T00:34:27;97872.38;;;9.61;59.79
21869;BME280;11099;41.564;23.296;2023-04-28T00:36:54;97689.28;;;8.48;59.61
21869;BME280;11099;41.564;23.296;2023-04-28T00:39:20;97732.13;;;8.93;59.37
21869;BME280;11099;41.564;23.296;2023-04-28T00:41:47;97812.69;;;9.40;60.59
21869;BME280;11099;41.564;23.296;2023-04-28T00:44:13;97851.72;;;9.58;62.28
21869;BME280;11099;41.564;23.296;2023-04-28T00:46:39;97830.59;;;9.48;62.83
21869;BME280;11099;41.564;23.296;2023-04-28T00:49:05;97775.53;;;8.83;64.31
21869;BME280;11099;41.564;23.296;2023-04-28T00:51:31;97886.34;;;9.53;63.49
21869;BME280;11099;41.564;23.296;2023-04-28T00:53:58;97888.91;;;9.58;64.69
21869;BME280;11099;41.564;23.296;2023-04-28T00:56:24;97755.16;;;8.60;64.84
21869;BME280;11099;41.564;23.296;2023-04-28T00:58:52;97837.38;;;9.21;63.61
21869;BME280;11099;41.564;23.296;2023-04-28T01:01:17;97837.81;;;9.10;64.03
21869;BME280;11099;41.564;23.296;2023-04-28T01:03:43;97809.63;;;8.95;62.50
21869;BME280;11099;41.564;23.296;2023-04-28T01:06:09;97882.66;;;9.49;62.23
21869;BME280;11099;41.564;23.296;2023-04-28T01:08:37;97882.31;;;9.56;60.79
21869;BME280;11099;41.564;23.296;2023-04-28T01:11:02;97800.88;;;9.13;60.41
21869;BME280;11099;41.564;23.296;2023-04-28T01:13:28;97871.25;;;9.67;61.13
21869;BME280;11099;41.564;23.296;2023-04-28T01:15:57;97833.56;;;8.90;61.83
21869;BME280;11099;41.564;23.296;2023-04-28T01:18:23;97818.78;;;8.46;63.64
21869;BME280;11099;41.564;23.296;2023-04-28T01:20:49;97832.97;;;8.55;64.66
21869;BME280;11099;41.564;23.296;2023-04-28T01:23:16;97862.09;;;9.03;62.87
21869;BME280;11099;41.564;23.296;2023-04-28T01:25:42;97873.56;;;9.17;61.58
21869;BME280;11099;41.564;23.296;2023-04-28T01:28:09;97871.28;;;9.11;60.56
21869;BME280;11099;41.564;23.296;2023-04-28T01:30:35;97871.84;;;9.45;59.48
21869;BME280;11099;41.564;23.296;2023-04-28T01:33:01;97869.78;;;9.23;59.80
21869;BME280;11099;41.564;23.296;2023-04-28T01:35:28;97848.75;;;9.08;59.82
21869;BME280;11099;41.564;23.296;2023-04-28T01:37:54;97852.88;;;9.33;58.80
21869;BME280;11099;41.564;23.296;2023-04-28T01:40:19;97870.56;;;9.24;60.04
21869;BME280;11099;41.564;23.296;2023-04-28T01:42:45;97847.38;;;9.11;60.30
21869;BME280;11099;41.564;23.296;2023-04-28T01:45:11;97861.13;;;8.94;61.12
21869;BME280;11099;41.564;23.296;2023-04-28T01:47:37;97822.59;;;8.78;60.90
21869;BME280;11099;41.564;23.296;2023-04-28T01:50:02;97781.78;;;8.31;62.44
21869;BME280;11099;41.564;23.296;2023-04-28T01:52:28;97873.56;;;8.98;61.76
21869;BME280;11099;41.564;23.296;2023-04-28T01:54:54;97840.75;;;8.70;61.98
21869;BME280;11099;41.564;23.296;2023-04-28T01:57:19;97872.50;;;9.00;61.24
21869;BME280;11099;41.564;23.296;2023-04-28T01:59:45;97871.41;;;8.82;61.52
21869;BME280;11099;41.564;23.296;2023-04-28T02:02:11;97877.09;;;9.13;61.01
21869;BME280;11099;41.564;23.296;2023-04-28T02:04:39;97746.25;;;8.08;61.12
21869;BME280;11099;41.564;23.296;2023-04-28T02:07:05;97769.53;;;8.59;60.04
21869;BME280;11099;41.564;23.296;2023-04-28T02:09:32;97889.38;;;9.09;60.41
21869;BME280;11099;41.564;23.296;2023-04-28T02:11:58;97866.09;;;9.01;59.48
21869;BME280;11099;41.564;23.296;2023-04-28T02:14:27;97818.72;;;8.70;59.45
21869;BME280;11099;41.564;23.296;2023-04-28T02:16:53;97913.09;;;9.00;60.13
21869;BME280;11099;41.564;23.296;2023-04-28T02:19:18;97913.97;;;8.95;60.38
21869;BME280;11099;41.564;23.296;2023-04-28T02:21:44;97769.09;;;8.28;59.66
21869;BME280;11099;41.564;23.296;2023-04-28T02:24:09;97905.78;;;8.92;60.50
21869;BME280;11099;41.564;23.296;2023-04-28T02:26:35;97884.63;;;9.06;59.91
21869;BME280;11099;41.564;23.296;2023-04-28T02:29:00;97821.28;;;8.32;60.33
21869;BME280;11099;41.564;23.296;2023-04-28T02:31:28;97892.59;;;9.06;59.86
21869;BME280;11099;41.564;23.296;2023-04-28T02:33:53;97753.69;;;8.06;60.04
21869;BME280;11099;41.564;23.296;2023-04-28T02:36:20;97899.75;;;8.86;60.26
21869;BME280;11099;41.564;23.296;2023-04-28T02:38:46;97915.88;;;8.90;60.08
21869;BME280;11099;41.564;23.296;2023-04-28T02:41:11;97872.78;;;8.98;59.54
21869;BME280;11099;41.564;23.296;2023-04-28T02:43:39;97887.38;;;8.77;60.72
21869;BME280;11099;41.564;23.296;2023-04-28T02:46:05;97885.44;;;8.63;60.24
21869;BME280;11099;41.564;23.296;2023-04-28T02:48:31;97922.78;;;8.91;60.74
21869;BME280;11099;41.564;23.296;2023-04-28T02:50:58;97834.25;;;8.34;61.26
21869;BME280;11099;41.564;23.296;2023-04-28T02:53:23;97934.88;;;9.02;60.81
21869;BME280;11099;41.564;23.296;2023-04-28T02:55:49;97953.66;;;9.06;60.46
21869;BME280;11099;41.564;23.296;2023-04-28T02:58:14;97945.38;;;9.12;60.70
21869;BME280;11099;41.564;23.296;2023-04-28T03:00:41;97892.78;;;8.48;61.59
21869;BME280;11099;41.564;23.296;2023-04-28T03:03:07;97876.06;;;8.47;61.03
21869;BME280;11099;41.564;23.296;2023-04-28T03:05:32;97890.41;;;8.46;60.96
21869;BME280;11099;41.564;23.296;2023-04-28T03:07:58;97916.22;;;9.07;60.33
21869;BME280;11099;41.564;23.296;2023-04-28T03:10:24;97901.44;;;9.01;60.40
21869;BME280;11099;41.564;23.296;2023-04-28T03:12:50;97954.00;;;9.23;60.27
21869;BME280;11099;41.564;23.296;2023-04-28T03:15:15;97932.47;;;8.58;63.01
21869;BME280;11099;41.564;23.296;2023-04-28T03:17:41;97907.00;;;9.00;60.51
21869;BME280;11099;41.564;23.296;2023-04-28T03:20:08;97993.06;;;8.45;64.08
21869;BME280;11099;41.564;23.296;2023-04-28T03:22:34;97963.41;;;9.34;61.59
21869;BME280;11099;41.564;23.296;2023-04-28T03:25:00;97969.97;;;8.75;64.59
21869;BME280;11099;41.564;23.296;2023-04-28T03:27:26;97977.84;;;8.56;65.46
21869;BME280;11099;41.564;23.296;2023-04-28T03:29:51;97983.41;;;8.26;65.83
21869;BME280;11099;41.564;23.296;2023-04-28T03:32:17;97937.38;;;8.11;65.39
21869;BME280;11099;41.564;23.296;2023-04-28T03:34:42;97994.47;;;8.38;65.72
21869;BME280;11099;41.564;23.296;2023-04-28T03:37:08;97973.38;;;8.17;65.24
21869;BME280;11099;41.564;23.296;2023-04-28T03:39:33;97868.78;;;7.76;64.44
21869;BME280;11099;41.564;23.296;2023-04-28T03:41:59;97895.13;;;7.91;63.65
21869;BME280;11099;41.564;23.296;2023-04-28T03:44:25;97956.84;;;8.31;63.04
21869;BME280;11099;41.564;23.296;2023-04-28T03:46:51;97898.78;;;8.00;62.88
21869;BME280;11099;41.564;23.296;2023-04-28T03:49:16;97874.66;;;7.68;62.83
21869;BME280;11099;41.564;23.296;2023-04-28T03:51:42;98005.25;;;8.52;62.63
21869;BME280;11099;41.564;23.296;2023-04-28T03:54:07;97905.88;;;7.76;62.96
21869;BME280;11099;41.564;23.296;2023-04-28T03:56:33;97986.38;;;8.53;62.34
21869;BME280;11099;41.564;23.296;2023-04-28T03:58:59;97856.59;;;7.75;62.01
21869;BME280;11099;41.564;23.296;2023-04-28T04:01:24;97909.97;;;7.97;62.48
21869;BME280;11099;41.564;23.296;2023-04-28T04:03:50;98006.84;;;9.01;61.20
21869;BME280;11099;41.564;23.296;2023-04-28T04:06:15;98013.50;;;8.98;62.03
21869;BME280;11099;41.564;23.296;2023-04-28T04:08:41;97911.19;;;8.34;61.77
21869;BME280;11099;41.564;23.296;2023-04-28T04:11:07;97993.28;;;8.78;62.05
21869;BME280;11099;41.564;23.296;2023-04-28T04:13:33;98000.19;;;9.84;59.37
21869;BME280;11099;41.564;23.296;2023-04-28T04:15:58;97941.25;;;9.76;57.62
21869;BME280;11099;41.564;23.296;2023-04-28T04:18:24;97938.75;;;9.66;57.30
21869;BME280;11099;41.564;23.296;2023-04-28T04:20:50;98036.84;;;9.68;58.35
21869;BME280;11099;41.564;23.296;2023-04-28T04:23:18;98014.66;;;10.10;56.81
21869;BME280;11099;41.564;23.296;2023-04-28T04:25:44;97941.28;;;10.42;54.87
21869;BME280;11099;41.564;23.296;2023-04-28T04:28:09;98022.88;;;11.20;53.52
21869;BME280;11099;41.564;23.296;2023-04-28T04:30:35;97966.56;;;10.72;54.20
21869;BME280;11099;41.564;23.296;2023-04-28T04:33:00;97963.00;;;10.76;54.35
21869;BME280;11099;41.564;23.296;2023-04-28T04:35:26;97925.44;;;10.50;54.17
21869;BME280;11099;41.564;23.296;2023-04-28T04:37:51;97896.44;;;10.16;55.04
21869;BME280;11099;41.564;23.296;2023-04-28T04:40:17;98026.31;;;10.79;55.00
21869;BME280;11099;41.564;23.296;2023-04-28T04:42:42;97983.63;;;10.38;55.94
21869;BME280;11099;41.564;23.296;2023-04-28T04:45:08;97942.66;;;10.39;55.21
21869;BME280;11099;41.564;23.296;2023-04-28T04:47:33;97933.44;;;11.64;51.51
21869;BME280;11099;41.564;23.296;2023-04-28T04:49:59;97940.19;;;10.98;52.90
21869;BME280;11099;41.564;23.296;2023-04-28T04:52:25;98010.16;;;10.90;54.69
21869;BME280;11099;41.564;23.296;2023-04-28T04:54:50;98028.03;;;11.80;53.19
21869;BME280;11099;41.564;23.296;2023-04-28T04:57:16;97999.13;;;11.10;54.44
21869;BME280;11099;41.564;23.296;2023-04-28T04:59:41;98007.22;;;11.69;53.42
21869;BME280;11099;41.564;23.296;2023-04-28T05:02:07;97948.28;;;11.93;52.67
21869;BME280;11099;41.564;23.296;2023-04-28T05:04:33;97973.97;;;13.04;48.30
21869;BME280;11099;41.564;23.296;2023-04-28T05:06:58;98039.84;;;14.70;45.66
21869;BME280;11099;41.564;23.296;2023-04-28T05:09:24;97934.91;;;13.34;46.02
21869;BME280;11099;41.564;23.296;2023-04-28T05:11:50;97941.19;;;13.56;46.26
21869;BME280;11099;41.564;23.296;2023-04-28T05:14:15;97997.03;;;15.29;44.40
21869;BME280;11099;41.564;23.296;2023-04-28T05:16:41;98012.91;;;15.93;42.78
21869;BME280;11099;41.564;23.296;2023-04-28T05:19:07;97963.78;;;14.92;42.59
21869;BME280;11099;41.564;23.296;2023-04-28T05:21:32;97980.06;;;15.88;42.62
21869;BME280;11099;41.564;23.296;2023-04-28T05:23:58;97909.06;;;14.93;41.55
21869;BME280;11099;41.564;23.296;2023-04-28T05:26:23;98027.69;;;15.99;41.24
21869;BME280;11099;41.564;23.296;2023-04-28T05:28:49;98000.47;;;15.68;42.83
21869;BME280;11099;41.564;23.296;2023-04-28T05:31:15;97889.88;;;14.82;41.36
21869;BME280;11099;41.564;23.296;2023-04-28T05:33:40;97963.31;;;15.19;41.06
21869;BME280;11099;41.564;23.296;2023-04-28T05:36:06;97996.38;;;15.32;42.43
21869;BME280;11099;41.564;23.296;2023-04-28T05:38:32;97985.75;;;13.86;45.11
21869;BME280;11099;41.564;23.296;2023-04-28T05:40:58;97967.47;;;13.36;46.38
21869;BME280;11099;41.564;23.296;2023-04-28T05:43:24;97962.28;;;13.31;44.92
21869;BME280;11099;41.564;23.296;2023-04-28T05:45:50;97909.38;;;13.11;43.22
21869;BME280;11099;41.564;23.296;2023-04-28T05:48:16;97893.41;;;12.80;43.80
21869;BME280;11099;41.564;23.296;2023-04-28T05:50:42;98048.25;;;14.16;42.54
21869;BME280;11099;41.564;23.296;2023-04-28T05:53:07;97942.41;;;13.15;42.01
21869;BME280;11099;41.564;23.296;2023-04-28T05:55:33;97923.28;;;12.82;42.26
21869;BME280;11099;41.564;23.296;2023-04-28T05:58:01;98029.69;;;13.19;43.20
21869;BME280;11099;41.564;23.296;2023-04-28T06:00:27;97905.72;;;12.50;42.99
21869;BME280;11099;41.564;23.296;2023-04-28T06:02:52;98034.31;;;12.97;42.74
21869;BME280;11099;41.564;23.296;2023-04-28T06:05:18;98049.78;;;13.17;43.72
21869;BME280;11099;41.564;23.296;2023-04-28T06:07:44;97946.44;;;12.24;44.09
21869;BME280;11099;41.564;23.296;2023-04-28T06:10:10;98052.72;;;13.38;43.28
21869;BME280;11099;41.564;23.296;2023-04-28T06:12:36;98054.03;;;13.09;44.28
21869;BME280;11099;41.564;23.296;2023-04-28T06:15:03;97873.16;;;11.99;43.12
21869;BME280;11099;41.564;23.296;2023-04-28T06:17:29;98015.91;;;13.35;42.35
21869;BME280;11099;41.564;23.296;2023-04-28T06:19:57;98000.50;;;13.32;42.62
21869;BME280;11099;41.564;23.296;2023-04-28T06:22:26;97975.63;;;13.23;42.89
21869;BME280;11099;41.564;23.296;2023-04-28T06:24:52;97952.88;;;12.94;42.76
21869;BME280;11099;41.564;23.296;2023-04-28T06:27:18;98014.81;;;13.36;42.33
21869;BME280;11099;41.564;23.296;2023-04-28T06:29:44;98034.41;;;14.23;42.11
21869;BME280;11099;41.564;23.296;2023-04-28T06:32:10;97938.81;;;13.28;42.29
21869;BME280;11099;41.564;23.296;2023-04-28T06:34:36;98055.84;;;14.23;41.66
21869;BME280;11099;41.564;23.296;2023-04-28T06:37:02;98018.19;;;13.76;41.88
21869;BME280;11099;41.564;23.296;2023-04-28T06:39:28;97887.00;;;12.81;42.13
21869;BME280;11099;41.564;23.296;2023-04-28T06:41:53;97958.50;;;13.50;41.39
21869;BME280;11099;41.564;23.296;2023-04-28T06:44:19;97866.44;;;13.16;42.62
21869;BME280;11099;41.564;23.296;2023-04-28T06:46:45;98054.25;;;14.13;41.49
21869;BME280;11099;41.564;23.296;2023-04-28T06:49:11;98028.09;;;14.36;41.24
21869;BME280;11099;41.564;23.296;2023-04-28T06:51:36;98020.69;;;13.90;41.67
21869;BME280;11099;41.564;23.296;2023-04-28T06:54:02;97997.53;;;14.20;41.29
21869;BME280;11099;41.564;23.296;2023-04-28T06:56:28;97961.47;;;14.26;41.21
21869;BME280;11099;41.564;23.296;2023-04-28T06:58:54;97942.44;;;13.84;40.29
21869;BME280;11099;41.564;23.296;2023-04-28T07:01:21;97960.84;;;14.20;40.38
21869;BME280;11099;41.564;23.296;2023-04-28T07:03:47;97978.13;;;14.40;41.12
21869;BME280;11099;41.564;23.296;2023-04-28T07:06:13;97998.44;;;15.06;39.65
21869;BME280;11099;41.564;23.296;2023-04-28T07:08:41;98019.44;;;14.31;41.46
21869;BME280;11099;41.564;23.296;2023-04-28T07:11:07;98007.88;;;14.73;41.13
21869;BME280;11099;41.564;23.296;2023-04-28T07:13:33;98010.31;;;15.55;40.21
21869;BME280;11099;41.564;23.296;2023-04-28T07:16:02;97927.75;;;14.72;39.29
21869;BME280;11099;41.564;23.296;2023-04-28T07:18:28;98043.06;;;15.01;39.21
21869;BME280;11099;41.564;23.296;2023-04-28T07:20:57;98011.50;;;14.69;41.66
21869;BME280;11099;41.564;23.296;2023-04-28T07:23:25;98014.50;;;14.67;40.19
21869;BME280;11099;41.564;23.296;2023-04-28T07:25:52;98006.06;;;14.86;40.57
21869;BME280;11099;41.564;23.296;2023-04-28T07:28:22;98010.59;;;14.56;40.32
21869;BME280;11099;41.564;23.296;2023-04-28T07:30:48;98009.16;;;14.67;40.84
21869;BME280;11099;41.564;23.296;2023-04-28T07:33:15;97991.69;;;14.53;40.36
21869;BME280;11099;41.564;23.296;2023-04-28T07:35:40;97899.88;;;14.26;40.19
21869;BME280;11099;41.564;23.296;2023-04-28T07:38:06;97988.59;;;14.80;39.26
21869;BME280;11099;41.564;23.296;2023-04-28T07:40:32;97980.72;;;15.13;38.36
21869;BME280;11099;41.564;23.296;2023-04-28T07:42:57;97907.72;;;14.31;40.10
21869;BME280;11099;41.564;23.296;2023-04-28T07:45:24;97915.31;;;14.76;39.19
21869;BME280;11099;41.564;23.296;2023-04-28T07:47:50;98022.75;;;16.22;38.82
21869;BME280;11099;41.564;23.296;2023-04-28T07:50:16;97910.59;;;14.73;39.74
21869;BME280;11099;41.564;23.296;2023-04-28T07:52:42;98030.16;;;15.33;39.79
21869;BME280;11099;41.564;23.296;2023-04-28T07:55:08;97963.19;;;15.16;39.06
21869;BME280;11099;41.564;23.296;2023-04-28T07:57:34;98028.81;;;16.31;37.86
21869;BME280;11099;41.564;23.296;2023-04-28T08:00:00;97931.44;;;15.89;38.10
21869;BME280;11099;41.564;23.296;2023-04-28T08:02:26;97960.69;;;15.82;38.44
21869;BME280;11099;41.564;23.296;2023-04-28T08:04:52;97993.59;;;16.33;38.26
21869;BME280;11099;41.564;23.296;2023-04-28T08:07:21;97900.06;;;15.81;36.64
21869;BME280;11099;41.564;23.296;2023-04-28T08:09:50;98000.25;;;16.60;36.77
21869;BME280;11099;41.564;23.296;2023-04-28T08:12:16;97927.34;;;16.49;33.05
21869;BME280;11099;41.564;23.296;2023-04-28T08:14:42;97973.44;;;16.39;35.95
21869;BME280;11099;41.564;23.296;2023-04-28T08:17:09;97952.88;;;15.77;36.18
21869;BME280;11099;41.564;23.296;2023-04-28T08:19:35;98021.41;;;16.16;39.14
21869;BME280;11099;41.564;23.296;2023-04-28T08:22:00;97978.88;;;16.64;35.85
21869;BME280;11099;41.564;23.296;2023-04-28T08:24:30;97905.66;;;15.55;36.79
21869;BME280;11099;41.564;23.296;2023-04-28T08:27:02;97947.50;;;15.77;36.15
21869;BME280;11099;41.564;23.296;2023-04-28T08:29:32;97955.25;;;14.98;34.23
21869;BME280;11099;41.564;23.296;2023-04-28T08:31:58;97994.25;;;16.09;35.05
21869;BME280;11099;41.564;23.296;2023-04-28T08:34:26;97973.38;;;15.52;35.92
21869;BME280;11099;41.564;23.296;2023-04-28T08:36:52;97959.78;;;15.57;37.00
21869;BME280;11099;41.564;23.296;2023-04-28T08:39:18;97956.44;;;15.10;36.30
21869;BME280;11099;41.564;23.296;2023-04-28T08:41:48;97979.00;;;16.22;35.53
21869;BME280;11099;41.564;23.296;2023-04-28T08:44:15;97987.94;;;15.93;35.44
21869;BME280;11099;41.564;23.296;2023-04-28T08:46:43;98008.16;;;16.32;34.98
21869;BME280;11099;41.564;23.296;2023-04-28T08:49:14;98010.44;;;17.00;33.74
21869;BME280;11099;41.564;23.296;2023-04-28T08:51:55;98005.88;;;16.67;36.13
21869;BME280;11099;41.564;23.296;2023-04-28T08:54:28;97990.72;;;16.50;34.79
21869;BME280;11099;41.564;23.296;2023-04-28T08:56:55;98015.38;;;16.65;34.39
21869;BME280;11099;41.564;23.296;2023-04-28T08:59:21;98001.78;;;16.94;34.85
21869;BME280;11099;41.564;23.296;2023-04-28T09:01:48;98014.69;;;17.25;35.04
21869;BME280;11099;41.564;23.296;2023-04-28T09:04:16;97924.03;;;17.01;34.36
21869;BME280;11099;41.564;23.296;2023-04-28T09:06:41;98013.34;;;17.19;35.21
21869;BME280;11099;41.564;23.296;2023-04-28T09:09:24;97954.72;;;17.00;34.51
21869;BME280;11099;41.564;23.296;2023-04-28T09:11:57;97931.84;;;17.19;33.60
21869;BME280;11099;41.564;23.296;2023-04-28T09:14:25;97980.88;;;17.77;34.56
21869;BME280;11099;41.564;23.296;2023-04-28T09:16:51;97938.25;;;17.67;34.74
21869;BME280;11099;41.564;23.296;2023-04-28T09:19:16;97932.44;;;17.52;34.45
21869;BME280;11099;41.564;23.296;2023-04-28T09:21:54;97982.16;;;17.95;33.33
21869;BME280;11099;41.564;23.296;2023-04-28T09:26:52;97846.84;;;17.30;34.04
21869;BME280;11099;41.564;23.296;2023-04-28T09:29:18;97893.66;;;17.41;32.53
21869;BME280;11099;41.564;23.296;2023-04-28T09:31:43;97960.75;;;18.14;32.90
21869;BME280;11099;41.564;23.296;2023-04-28T09:34:09;97862.50;;;17.68;32.95
21869;BME280;11099;41.564;23.296;2023-04-28T09:36:47;97925.63;;;18.11;34.28
21869;BME280;11099;41.564;23.296;2023-04-28T09:39:28;97966.59;;;18.16;33.37
21869;BME280;11099;41.564;23.296;2023-04-28T09:41:54;97967.06;;;17.66;32.89
21869;BME280;11099;41.564;23.296;2023-04-28T09:44:20;97922.31;;;18.02;33.88
21869;BME280;11099;41.564;23.296;2023-04-28T09:46:47;97857.78;;;16.97;35.06
21869;BME280;11099;41.564;23.296;2023-04-28T09:49:13;97966.53;;;17.60;32.88
21869;BME280;11099;41.564;23.296;2023-04-28T09:51:39;97922.34;;;18.17;34.54
21869;BME280;11099;41.564;23.296;2023-04-28T09:54:06;97893.22;;;18.23;34.85
21869;BME280;11099;41.564;23.296;2023-04-28T09:56:33;97949.53;;;18.72;33.92
21869;BME280;11099;41.564;23.296;2023-04-28T09:59:00;97866.72;;;18.25;32.21
21869;BME280;11099;41.564;23.296;2023-04-28T10:01:36;97851.16;;;18.34;32.58
21869;BME280;11099;41.564;23.296;2023-04-28T10:04:04;97938.13;;;18.79;32.43
21869;BME280;11099;41.564;23.296;2023-04-28T10:06:33;97881.97;;;17.89;34.37
21869;BME280;11099;41.564;23.296;2023-04-28T10:09:00;97940.00;;;18.15;33.49
21869;BME280;11099;41.564;23.296;2023-04-28T10:11:26;97891.66;;;18.22;32.34
21869;BME280;11099;41.564;23.296;2023-04-28T10:13:53;97930.84;;;18.04;32.04
21869;BME280;11099;41.564;23.296;2023-04-28T10:16:19;97906.00;;;18.10;33.59
21869;BME280;11099;41.564;23.296;2023-04-28T10:18:45;97914.16;;;18.74;33.03
21869;BME280;11099;41.564;23.296;2023-04-28T10:21:16;97898.53;;;18.67;34.39
21869;BME280;11099;41.564;23.296;2023-04-28T10:24:14;97904.25;;;19.13;33.25
21869;BME280;11099;41.564;23.296;2023-04-28T10:29:14;97823.50;;;18.37;33.41
21869;BME280;11099;41.564;23.296;2023-04-28T10:34:43;97894.03;;;18.71;31.84
21869;BME280;11099;41.564;23.296;2023-04-28T10:37:09;97837.25;;;18.32;33.46
21869;BME280;11099;41.564;23.296;2023-04-28T10:39:35;97810.97;;;18.29;32.68
21869;BME280;11099;41.564;23.296;2023-04-28T10:42:01;97839.56;;;18.65;31.30
21869;BME280;11099;41.564;23.296;2023-04-28T10:47:05;97862.81;;;18.54;32.23
21869;BME280;11099;41.564;23.296;2023-04-28T10:55:27;97862.44;;;18.87;33.55
21869;BME280;11099;41.564;23.296;2023-04-28T11:00:40;97833.94;;;18.55;34.16
21869;BME280;11099;41.564;23.296;2023-04-28T11:03:06;97809.19;;;18.84;31.69
21869;BME280;11099;41.564;23.296;2023-04-28T11:05:31;97795.28;;;18.66;30.82
21869;BME280;11099;41.564;23.296;2023-04-28T11:13:37;97826.78;;;19.13;35.19
21869;BME280;11099;41.564;23.296;2023-04-28T11:16:03;97795.31;;;19.40;32.26
21869;BME280;11099;41.564;23.296;2023-04-28T11:21:06;97773.56;;;18.94;31.72
21869;BME280;11099;41.564;23.296;2023-04-28T11:23:32;97807.44;;;19.11;31.43
21869;BME280;11099;41.564;23.296;2023-04-28T11:25:58;97791.09;;;19.43;32.34
21869;BME280;11099;41.564;23.296;2023-04-28T11:28:24;97819.88;;;19.74;30.53
21869;BME280;11099;41.564;23.296;2023-04-28T11:30:49;97714.94;;;18.91;30.51
21869;BME280;11099;41.564;23.296;2023-04-28T11:33:15;97812.34;;;19.06;29.42
21869;BME280;11099;41.564;23.296;2023-04-28T11:35:42;97814.25;;;19.44;30.51
21869;BME280;11099;41.564;23.296;2023-04-28T11:38:07;97795.53;;;19.32;31.99
21869;BME280;11099;41.564;23.296;2023-04-28T11:40:33;97735.44;;;19.35;29.33
21869;BME280;11099;41.564;23.296;2023-04-28T11:42:59;97744.97;;;19.29;31.39
21869;BME280;11099;41.564;23.296;2023-04-28T11:45:25;97687.16;;;19.10;30.07
21869;BME280;11099;41.564;23.296;2023-04-28T11:47:51;97655.09;;;18.86;30.96
21869;BME280;11099;41.564;23.296;2023-04-28T11:50:34;97769.59;;;19.89;29.40
21869;BME280;11099;41.564;23.296;2023-04-28T11:53:00;97811.59;;;19.86;31.38
21869;BME280;11099;41.564;23.296;2023-04-28T11:55:25;97752.00;;;19.76;29.79
21869;BME280;11099;41.564;23.296;2023-04-28T11:58:18;97784.06;;;19.58;28.61
21869;BME280;11099;41.564;23.296;2023-04-28T12:01:06;97759.28;;;18.94;28.42
21869;BME280;11099;41.564;23.296;2023-04-28T12:03:31;97760.00;;;19.10;29.40
21869;BME280;11099;41.564;23.296;2023-04-28T12:05:57;97763.56;;;19.14;27.73
21869;BME280;11099;41.564;23.296;2023-04-28T12:08:28;97700.69;;;18.91;28.38
21869;BME280;11099;41.564;23.296;2023-04-28T12:11:11;97685.69;;;19.13;28.74
21869;BME280;11099;41.564;23.296;2023-04-28T12:13:40;97741.63;;;19.58;29.88
21869;BME280;11099;41.564;23.296;2023-04-28T12:16:06;97735.91;;;19.40;33.84
21869;BME280;11099;41.564;23.296;2023-04-28T12:18:35;97743.56;;;18.96;35.25
21869;BME280;11099;41.564;23.296;2023-04-28T12:21:01;97699.53;;;18.92;35.15
21869;BME280;11099;41.564;23.296;2023-04-28T12:23:34;97728.53;;;19.37;35.36
21869;BME280;11099;41.564;23.296;2023-04-28T12:26:01;97739.09;;;19.46;35.29
21869;BME280;11099;41.564;23.296;2023-04-28T12:28:40;97735.44;;;19.35;35.31
21869;BME280;11099;41.564;23.296;2023-04-28T12:31:08;97717.03;;;19.21;34.76
21869;BME280;11099;41.564;23.296;2023-04-28T12:33:34;97710.19;;;19.46;35.18
21869;BME280;11099;41.564;23.296;2023-04-28T12:36:03;97657.44;;;18.87;34.62
21869;BME280;11099;41.564;23.296;2023-04-28T12:38:31;97664.63;;;18.80;33.51
21869;BME280;11099;41.564;23.296;2023-04-28T12:40:57;97605.69;;;18.43;30.90
21869;BME280;11099;41.564;23.296;2023-04-28T12:43:23;97648.06;;;18.42;32.74
21869;BME280;11099;41.564;23.296;2023-04-28T12:45:53;97659.84;;;18.92;32.21
21869;BME280;11099;41.564;23.296;2023-04-28T12:48:19;97641.19;;;18.64;32.56
21869;BME280;11099;41.564;23.296;2023-04-28T12:50:45;97721.53;;;18.94;36.05
21869;BME280;11099;41.564;23.296;2023-04-28T12:53:11;97673.91;;;18.82;32.60
21869;BME280;11099;41.564;23.296;2023-04-28T12:55:36;97564.94;;;18.25;33.91
21869;BME280;11099;41.564;23.296;2023-04-28T12:58:04;97669.13;;;19.14;32.41
21869;BME280;11099;41.564;23.296;2023-04-28T13:00:30;97629.56;;;18.80;33.44
21869;BME280;11099;41.564;23.296;2023-04-28T13:02:56;97694.88;;;19.31;32.53
21869;BME280;11099;41.564;23.296;2023-04-28T13:05:22;97670.94;;;19.53;31.82
21869;BME280;11099;41.564;23.296;2023-04-28T13:07:47;97638.19;;;19.31;34.81
21869;BME280;11099;41.564;23.296;2023-04-28T13:10:15;97674.53;;;18.95;36.14
21869;BME280;11099;41.564;23.296;2023-04-28T13:12:40;97691.28;;;19.24;33.49
21869;BME280;11099;41.564;23.296;2023-04-28T13:15:07;97627.75;;;19.07;32.79
21869;BME280;11099;41.564;23.296;2023-04-28T13:17:32;97579.22;;;18.87;33.91